Hanover, New Mexico
Current Conditions -  °F | °C
As of 5:35 PM on Tuesday 25 Nov 2014 (Local Time) from KSVC Reporting Station
Clear Clear  
Wind Chill: 39°   Ceiling: Unl
Heat Index: 45°   Visibility: 10mi
Dew Point: -4°   Wind: 10mph
Humidity: 13%   Direction: 280°W
Pressure: 30.32"   Gusts: NA
Location:  32.8°N, 108.09°W
Report Text: KSVC 260035Z AUTO 28009KT 10SM CLR 07/M20 A3032 RMK AO2
Loading
Personal Weather Stations






























Interactive Weather Map New forecast layout! Learn more

10-Day Weather Forecast

Advertisements
Track Severe Weather on mobile